createdAt,value
2018-02-22T14:01:54.608Z,4.40
2018-02-22T14:04:26.545Z,4.50
2018-02-22T15:15:35.356Z,4.00
2018-02-22T15:27:16.710Z,3.90
2018-02-22T15:29:55.213Z,3.80
2018-02-22T15:35:33.834Z,3.90
2018-02-22T15:59:07.669Z,4.00
2018-02-22T16:01:37.204Z,3.90
2018-02-22T16:04:04.179Z,3.80
2018-02-22T16:06:31.169Z,3.60
2018-02-22T16:08:58.014Z,3.40
2018-02-22T16:11:28.200Z,3.40
2018-02-22T16:13:55.081Z,3.30
2018-02-22T16:16:21.853Z,3.20
2018-02-22T16:18:48.540Z,2.90
2018-02-22T16:21:16.135Z,3.40
2018-02-22T16:23:42.888Z,3.40
2018-02-22T16:26:10.834Z,3.00
2018-02-22T16:28:38.896Z,3.10
2018-02-22T16:31:05.592Z,3.10
2018-02-22T16:33:32.337Z,3.00
2018-02-22T16:35:59.188Z,2.70
2018-02-22T16:38:25.889Z,2.70
2018-02-22T16:40:52.597Z,2.70
2018-02-22T16:43:19.555Z,2.60
2018-02-22T16:45:46.267Z,2.60
2018-02-22T16:48:13.322Z,2.40
2018-02-22T16:50:41.182Z,2.50
2018-02-22T16:53:08.145Z,2.50
2018-02-22T16:55:34.994Z,2.40
2018-02-22T16:58:01.954Z,2.10
2018-02-22T17:00:28.637Z,2.20
2018-02-22T17:02:56.130Z,2.10
2018-02-22T17:05:22.958Z,2.20
2018-02-22T17:07:49.880Z,2.00
2018-02-22T17:10:17.062Z,2.10
2018-02-22T17:25:23.922Z,1.80
2018-02-22T17:27:56.730Z,1.60
2018-02-22T17:30:29.788Z,1.50
2018-02-22T17:32:56.816Z,1.50
2018-02-22T17:48:48.545Z,1.50
2018-02-22T17:51:15.501Z,1.50
2018-02-22T17:53:43.148Z,1.40
2018-02-22T17:56:09.863Z,1.30
2018-02-22T17:58:38.988Z,1.20
2018-02-22T18:01:05.744Z,1.10
2018-02-22T18:03:32.454Z,1.10
2018-02-22T18:05:59.117Z,1.20
2018-02-22T18:08:26.090Z,1.00
2018-02-22T18:14:15.212Z,1.20
2018-02-22T18:34:43.882Z,0.70
2018-02-22T18:50:38.865Z,0.90
2018-02-22T18:53:06.482Z,0.60
2018-02-22T18:55:33.900Z,0.60
2018-02-22T18:58:00.529Z,0.60
2018-02-22T19:00:27.132Z,0.60
2018-02-22T19:02:54.956Z,0.60
2018-02-22T19:05:21.620Z,0.50
2018-02-22T19:25:47.302Z,0.40
2018-02-22T19:28:21.028Z,0.50
2018-02-22T19:49:29.525Z,0.00
2018-02-22T20:37:58.231Z,-0.30
2018-02-22T21:01:12.621Z,-0.60
